sensor_id;sensor_type;location;lat;lon;timestamp;P1;durP1;ratioP1;P2;durP2;ratioP2
2562;SDS011;1291;51.420;6.970;2022-08-19T00:00:04;8.13;;;6.13;;
2562;SDS011;1291;51.420;6.970;2022-08-19T00:02:35;8.65;;;6.43;;
2562;SDS011;1291;51.420;6.970;2022-08-19T00:05:01;7.43;;;6.70;;
2562;SDS011;1291;51.420;6.970;2022-08-19T00:07:27;7.68;;;6.28;;
2562;SDS011;1291;51.420;6.970;2022-08-19T00:09:53;7.22;;;6.50;;
2562;SDS011;1291;51.420;6.970;2022-08-19T00:12:18;6.60;;;5.95;;
2562;SDS011;1291;51.420;6.970;2022-08-19T00:14:47;7.10;;;6.10;;
2562;SDS011;1291;51.420;6.970;2022-08-19T00:17:12;6.90;;;6.20;;
2562;SDS011;1291;51.420;6.970;2022-08-19T00:19:38;6.70;;;6.00;;
2562;SDS011;1291;51.420;6.970;2022-08-19T00:22:04;7.68;;;6.38;;
2562;SDS011;1291;51.420;6.970;2022-08-19T00:24:31;6.63;;;6.00;;
2562;SDS011;1291;51.420;6.970;2022-08-19T00:26:57;6.43;;;5.80;;
2562;SDS011;1291;51.420;6.970;2022-08-19T00:29:23;7.78;;;5.63;;
2562;SDS011;1291;51.420;6.970;2022-08-19T00:31:50;6.82;;;5.85;;
2562;SDS011;1291;51.420;6.970;2022-08-19T00:34:19;7.10;;;6.28;;
2562;SDS011;1291;51.420;6.970;2022-08-19T00:36:46;7.57;;;6.10;;
2562;SDS011;1291;51.420;6.970;2022-08-19T00:39:13;7.15;;;5.55;;
2562;SDS011;1291;51.420;6.970;2022-08-19T00:41:40;6.47;;;5.88;;
2562;SDS011;1291;51.420;6.970;2022-08-19T00:44:12;6.85;;;6.10;;
2562;SDS011;1291;51.420;6.970;2022-08-19T00:46:42;7.15;;;6.47;;
2562;SDS011;1291;51.420;6.970;2022-08-19T00:49:14;6.60;;;5.63;;
2562;SDS011;1291;51.420;6.970;2022-08-19T00:51:43;7.20;;;6.57;;
2562;SDS011;1291;51.420;6.970;2022-08-19T00:54:19;6.55;;;5.95;;
2562;SDS011;1291;51.420;6.970;2022-08-19T00:56:46;6.43;;;5.82;;
2562;SDS011;1291;51.420;6.970;2022-08-19T00:59:13;6.45;;;5.85;;
2562;SDS011;1291;51.420;6.970;2022-08-19T01:01:41;6.75;;;6.15;;
2562;SDS011;1291;51.420;6.970;2022-08-19T01:04:08;8.52;;;6.60;;
2562;SDS011;1291;51.420;6.970;2022-08-19T01:06:34;10.48;;;7.57;;
2562;SDS011;1291;51.420;6.970;2022-08-19T01:09:02;6.72;;;6.07;;
2562;SDS011;1291;51.420;6.970;2022-08-19T01:11:29;7.38;;;6.57;;
2562;SDS011;1291;51.420;6.970;2022-08-19T01:14:02;7.63;;;6.78;;
2562;SDS011;1291;51.420;6.970;2022-08-19T01:16:28;8.32;;;7.50;;
2562;SDS011;1291;51.420;6.970;2022-08-19T01:18:56;8.93;;;7.13;;
2562;SDS011;1291;51.420;6.970;2022-08-19T01:24:05;8.85;;;7.95;;
2562;SDS011;1291;51.420;6.970;2022-08-19T01:26:31;9.05;;;7.50;;
2562;SDS011;1291;51.420;6.970;2022-08-19T01:28:57;8.50;;;7.03;;
2562;SDS011;1291;51.420;6.970;2022-08-19T01:31:26;8.32;;;7.30;;
2562;SDS011;1291;51.420;6.970;2022-08-19T01:33:56;8.07;;;7.35;;
2562;SDS011;1291;51.420;6.970;2022-08-19T01:38:56;8.07;;;7.30;;
2562;SDS011;1291;51.420;6.970;2022-08-19T01:41:23;9.50;;;7.95;;
2562;SDS011;1291;51.420;6.970;2022-08-19T01:43:49;11.75;;;8.10;;
2562;SDS011;1291;51.420;6.970;2022-08-19T01:46:16;9.80;;;7.70;;
2562;SDS011;1291;51.420;6.970;2022-08-19T01:48:41;8.93;;;8.02;;
2562;SDS011;1291;51.420;6.970;2022-08-19T01:51:08;8.00;;;7.20;;
2562;SDS011;1291;51.420;6.970;2022-08-19T01:53:34;8.82;;;7.95;;
2562;SDS011;1291;51.420;6.970;2022-08-19T01:56:01;9.73;;;8.60;;
2562;SDS011;1291;51.420;6.970;2022-08-19T01:58:29;11.52;;;8.25;;
2562;SDS011;1291;51.420;6.970;2022-08-19T02:01:03;8.57;;;7.78;;
2562;SDS011;1291;51.420;6.970;2022-08-19T02:03:30;9.00;;;8.10;;
2562;SDS011;1291;51.420;6.970;2022-08-19T02:05:59;10.55;;;8.55;;
2562;SDS011;1291;51.420;6.970;2022-08-19T02:08:27;9.23;;;8.32;;
2562;SDS011;1291;51.420;6.970;2022-08-19T02:10:56;9.52;;;8.25;;
2562;SDS011;1291;51.420;6.970;2022-08-19T02:13:22;12.43;;;9.20;;
2562;SDS011;1291;51.420;6.970;2022-08-19T02:15:49;10.70;;;9.60;;
2562;SDS011;1291;51.420;6.970;2022-08-19T02:18:14;10.68;;;8.63;;
2562;SDS011;1291;51.420;6.970;2022-08-19T02:20:41;9.50;;;8.50;;
2562;SDS011;1291;51.420;6.970;2022-08-19T02:23:11;9.50;;;8.60;;
2562;SDS011;1291;51.420;6.970;2022-08-19T02:25:37;8.82;;;7.85;;
2562;SDS011;1291;51.420;6.970;2022-08-19T02:28:02;8.77;;;7.90;;
2562;SDS011;1291;51.420;6.970;2022-08-19T02:30:32;8.60;;;7.70;;
2562;SDS011;1291;51.420;6.970;2022-08-19T02:33:00;9.65;;;8.18;;
2562;SDS011;1291;51.420;6.970;2022-08-19T02:35:25;9.98;;;8.05;;
2562;SDS011;1291;51.420;6.970;2022-08-19T02:37:51;9.55;;;8.65;;
2562;SDS011;1291;51.420;6.970;2022-08-19T02:43:23;10.32;;;9.27;;
2562;SDS011;1291;51.420;6.970;2022-08-19T02:45:49;12.07;;;9.20;;
2562;SDS011;1291;51.420;6.970;2022-08-19T02:48:16;10.90;;;8.85;;
2562;SDS011;1291;51.420;6.970;2022-08-19T02:50:47;11.18;;;9.38;;
2562;SDS011;1291;51.420;6.970;2022-08-19T02:53:18;11.18;;;9.00;;
2562;SDS011;1291;51.420;6.970;2022-08-19T02:55:47;10.43;;;8.20;;
2562;SDS011;1291;51.420;6.970;2022-08-19T02:58:13;10.63;;;9.63;;
2562;SDS011;1291;51.420;6.970;2022-08-19T03:00:43;10.63;;;8.18;;
2562;SDS011;1291;51.420;6.970;2022-08-19T03:03:14;10.82;;;9.30;;
2562;SDS011;1291;51.420;6.970;2022-08-19T03:05:40;9.82;;;8.82;;
2562;SDS011;1291;51.420;6.970;2022-08-19T03:08:06;10.45;;;9.45;;
2562;SDS011;1291;51.420;6.970;2022-08-19T03:10:39;9.95;;;8.95;;
2562;SDS011;1291;51.420;6.970;2022-08-19T03:13:07;12.48;;;9.63;;
2562;SDS011;1291;51.420;6.970;2022-08-19T03:15:33;10.65;;;9.55;;
2562;SDS011;1291;51.420;6.970;2022-08-19T03:17:59;12.45;;;9.63;;
2562;SDS011;1291;51.420;6.970;2022-08-19T03:20:24;10.57;;;9.18;;
2562;SDS011;1291;51.420;6.970;2022-08-19T03:22:51;9.70;;;8.70;;
2562;SDS011;1291;51.420;6.970;2022-08-19T03:25:16;10.15;;;9.15;;
2562;SDS011;1291;51.420;6.970;2022-08-19T03:27:42;10.27;;;9.15;;
2562;SDS011;1291;51.420;6.970;2022-08-19T03:30:08;10.40;;;9.30;;
2562;SDS011;1291;51.420;6.970;2022-08-19T03:32:35;10.25;;;9.13;;
2562;SDS011;1291;51.420;6.970;2022-08-19T03:35:00;10.32;;;9.20;;
2562;SDS011;1291;51.420;6.970;2022-08-19T03:37:27;10.70;;;9.60;;
2562;SDS011;1291;51.420;6.970;2022-08-19T03:39:53;11.13;;;9.85;;
2562;SDS011;1291;51.420;6.970;2022-08-19T03:42:21;12.68;;;10.50;;
2562;SDS011;1291;51.420;6.970;2022-08-19T03:44:46;13.20;;;11.52;;
2562;SDS011;1291;51.420;6.970;2022-08-19T03:47:12;14.30;;;12.75;;
2562;SDS011;1291;51.420;6.970;2022-08-19T03:49:41;14.63;;;12.90;;
2562;SDS011;1291;51.420;6.970;2022-08-19T03:52:07;15.90;;;14.20;;
2562;SDS011;1291;51.420;6.970;2022-08-19T03:54:34;15.15;;;13.68;;
2562;SDS011;1291;51.420;6.970;2022-08-19T03:56:59;15.43;;;13.82;;
2562;SDS011;1291;51.420;6.970;2022-08-19T03:59:26;18.15;;;14.95;;
2562;SDS011;1291;51.420;6.970;2022-08-19T04:01:54;16.65;;;14.70;;
2562;SDS011;1291;51.420;6.970;2022-08-19T04:04:22;16.85;;;15.20;;
2562;SDS011;1291;51.420;6.970;2022-08-19T04:06:48;17.55;;;15.30;;
2562;SDS011;1291;51.420;6.970;2022-08-19T04:09:14;16.17;;;14.55;;
2562;SDS011;1291;51.420;6.970;2022-08-19T04:11:41;16.88;;;14.65;;
2562;SDS011;1291;51.420;6.970;2022-08-19T04:14:09;17.17;;;15.25;;
2562;SDS011;1291;51.420;6.970;2022-08-19T04:16:44;16.30;;;14.60;;
2562;SDS011;1291;51.420;6.970;2022-08-19T04:19:11;16.45;;;14.45;;
2562;SDS011;1291;51.420;6.970;2022-08-19T04:21:38;16.48;;;14.82;;
2562;SDS011;1291;51.420;6.970;2022-08-19T04:24:03;17.40;;;15.60;;
2562;SDS011;1291;51.420;6.970;2022-08-19T04:26:31;17.40;;;15.35;;
2562;SDS011;1291;51.420;6.970;2022-08-19T04:29:00;17.83;;;15.10;;
2562;SDS011;1291;51.420;6.970;2022-08-19T04:31:27;16.60;;;14.90;;
2562;SDS011;1291;51.420;6.970;2022-08-19T04:33:58;18.35;;;16.40;;
2562;SDS011;1291;51.420;6.970;2022-08-19T04:36:26;19.40;;;17.00;;
2562;SDS011;1291;51.420;6.970;2022-08-19T04:38:54;17.00;;;15.20;;
2562;SDS011;1291;51.420;6.970;2022-08-19T04:41:21;18.95;;;15.95;;
2562;SDS011;1291;51.420;6.970;2022-08-19T04:44:05;17.48;;;15.68;;
2562;SDS011;1291;51.420;6.970;2022-08-19T04:46:32;18.65;;;16.23;;
2562;SDS011;1291;51.420;6.970;2022-08-19T04:48:58;18.13;;;16.15;;
2562;SDS011;1291;51.420;6.970;2022-08-19T04:51:25;19.40;;;16.67;;
2562;SDS011;1291;51.420;6.970;2022-08-19T04:53:51;20.08;;;16.60;;
2562;SDS011;1291;51.420;6.970;2022-08-19T04:56:17;20.70;;;16.88;;
2562;SDS011;1291;51.420;6.970;2022-08-19T04:58:51;20.15;;;17.42;;
2562;SDS011;1291;51.420;6.970;2022-08-19T05:01:25;20.95;;;17.55;;
2562;SDS011;1291;51.420;6.970;2022-08-19T05:03:53;20.60;;;18.35;;
2562;SDS011;1291;51.420;6.970;2022-08-19T05:06:19;22.13;;;18.05;;
2562;SDS011;1291;51.420;6.970;2022-08-19T05:08:46;19.77;;;17.13;;
2562;SDS011;1291;51.420;6.970;2022-08-19T05:11:20;21.83;;;17.83;;
2562;SDS011;1291;51.420;6.970;2022-08-19T05:13:49;20.58;;;17.17;;
2562;SDS011;1291;51.420;6.970;2022-08-19T05:16:16;18.73;;;16.83;;
2562;SDS011;1291;51.420;6.970;2022-08-19T05:18:43;19.67;;;17.58;;
2562;SDS011;1291;51.420;6.970;2022-08-19T05:21:28;19.75;;;17.15;;
2562;SDS011;1291;51.420;6.970;2022-08-19T05:24:13;19.33;;;16.90;;
2562;SDS011;1291;51.420;6.970;2022-08-19T05:26:40;21.75;;;17.67;;
2562;SDS011;1291;51.420;6.970;2022-08-19T05:29:08;20.67;;;17.15;;
2562;SDS011;1291;51.420;6.970;2022-08-19T05:31:35;20.33;;;16.48;;
2562;SDS011;1291;51.420;6.970;2022-08-19T05:34:02;22.05;;;17.70;;
2562;SDS011;1291;51.420;6.970;2022-08-19T05:36:28;24.52;;;17.65;;
2562;SDS011;1291;51.420;6.970;2022-08-19T05:39:02;20.50;;;17.25;;
2562;SDS011;1291;51.420;6.970;2022-08-19T05:41:28;21.42;;;17.67;;
2562;SDS011;1291;51.420;6.970;2022-08-19T05:44:00;20.85;;;17.13;;
2562;SDS011;1291;51.420;6.970;2022-08-19T05:46:27;18.27;;;16.42;;
2562;SDS011;1291;51.420;6.970;2022-08-19T05:48:54;22.08;;;17.90;;
2562;SDS011;1291;51.420;6.970;2022-08-19T05:51:21;21.27;;;18.58;;
2562;SDS011;1291;51.420;6.970;2022-08-19T05:53:47;21.70;;;17.60;;
2562;SDS011;1291;51.420;6.970;2022-08-19T05:56:14;20.55;;;17.23;;
2562;SDS011;1291;51.420;6.970;2022-08-19T05:58:41;22.60;;;17.30;;
2562;SDS011;1291;51.420;6.970;2022-08-19T06:01:09;20.23;;;17.50;;
2562;SDS011;1291;51.420;6.970;2022-08-19T06:03:40;28.02;;;19.35;;
2562;SDS011;1291;51.420;6.970;2022-08-19T06:06:06;26.42;;;21.63;;
2562;SDS011;1291;51.420;6.970;2022-08-19T06:08:34;27.83;;;23.30;;
2562;SDS011;1291;51.420;6.970;2022-08-19T06:13:47;35.47;;;27.08;;
2562;SDS011;1291;51.420;6.970;2022-08-19T06:16:30;33.30;;;27.63;;
2562;SDS011;1291;51.420;6.970;2022-08-19T06:18:57;34.22;;;27.30;;
2562;SDS011;1291;51.420;6.970;2022-08-19T06:21:26;30.08;;;26.02;;
2562;SDS011;1291;51.420;6.970;2022-08-19T06:23:53;32.83;;;27.27;;
2562;SDS011;1291;51.420;6.970;2022-08-19T06:26:20;39.38;;;29.33;;
2562;SDS011;1291;51.420;6.970;2022-08-19T06:28:47;41.10;;;29.60;;
2562;SDS011;1291;51.420;6.970;2022-08-19T06:31:17;40.83;;;30.65;;
2562;SDS011;1291;51.420;6.970;2022-08-19T06:33:46;38.92;;;31.33;;
2562;SDS011;1291;51.420;6.970;2022-08-19T06:36:20;38.65;;;32.72;;
2562;SDS011;1291;51.420;6.970;2022-08-19T06:38:55;39.15;;;33.35;;
2562;SDS011;1291;51.420;6.970;2022-08-19T06:41:24;37.33;;;32.22;;
2562;SDS011;1291;51.420;6.970;2022-08-19T06:43:51;37.78;;;32.42;;
2562;SDS011;1291;51.420;6.970;2022-08-19T06:46:17;36.70;;;32.05;;
2562;SDS011;1291;51.420;6.970;2022-08-19T06:48:44;42.67;;;32.65;;
2562;SDS011;1291;51.420;6.970;2022-08-19T06:51:11;42.75;;;34.55;;
2562;SDS011;1291;51.420;6.970;2022-08-19T06:53:40;39.42;;;33.65;;
2562;SDS011;1291;51.420;6.970;2022-08-19T06:56:12;42.17;;;33.47;;
2562;SDS011;1291;51.420;6.970;2022-08-19T06:58:39;40.08;;;33.33;;
2562;SDS011;1291;51.420;6.970;2022-08-19T07:01:06;42.17;;;34.63;;
2562;SDS011;1291;51.420;6.970;2022-08-19T07:03:32;37.95;;;32.47;;
2562;SDS011;1291;51.420;6.970;2022-08-19T07:06:06;38.72;;;32.35;;
2562;SDS011;1291;51.420;6.970;2022-08-19T07:08:34;40.42;;;34.38;;
2562;SDS011;1291;51.420;6.970;2022-08-19T07:11:02;39.08;;;32.63;;
2562;SDS011;1291;51.420;6.970;2022-08-19T07:13:31;39.63;;;32.20;;
2562;SDS011;1291;51.420;6.970;2022-08-19T07:16:08;38.85;;;32.35;;
2562;SDS011;1291;51.420;6.970;2022-08-19T07:18:36;38.13;;;32.28;;
2562;SDS011;1291;51.420;6.970;2022-08-19T07:21:21;37.45;;;31.55;;
2562;SDS011;1291;51.420;6.970;2022-08-19T07:23:49;45.80;;;33.90;;
2562;SDS011;1291;51.420;6.970;2022-08-19T07:26:26;42.42;;;33.42;;
2562;SDS011;1291;51.420;6.970;2022-08-19T07:28:54;42.80;;;34.55;;
2562;SDS011;1291;51.420;6.970;2022-08-19T07:31:21;44.05;;;35.63;;
2562;SDS011;1291;51.420;6.970;2022-08-19T07:33:50;41.33;;;35.08;;
2562;SDS011;1291;51.420;6.970;2022-08-19T07:36:19;40.33;;;34.85;;
2562;SDS011;1291;51.420;6.970;2022-08-19T07:38:49;45.45;;;36.75;;
2562;SDS011;1291;51.420;6.970;2022-08-19T07:41:17;48.40;;;38.50;;
2562;SDS011;1291;51.420;6.970;2022-08-19T07:43:44;43.92;;;38.20;;
2562;SDS011;1291;51.420;6.970;2022-08-19T07:46:10;47.65;;;39.33;;
2562;SDS011;1291;51.420;6.970;2022-08-19T07:48:38;45.08;;;38.05;;
2562;SDS011;1291;51.420;6.970;2022-08-19T07:51:06;49.80;;;39.67;;
2562;SDS011;1291;51.420;6.970;2022-08-19T07:53:33;47.80;;;39.35;;
2562;SDS011;1291;51.420;6.970;2022-08-19T07:55:59;47.58;;;38.67;;
2562;SDS011;1291;51.420;6.970;2022-08-19T07:58:29;50.28;;;39.38;;
2562;SDS011;1291;51.420;6.970;2022-08-19T08:00:57;52.05;;;40.08;;
2562;SDS011;1291;51.420;6.970;2022-08-19T08:03:23;50.30;;;40.88;;
2562;SDS011;1291;51.420;6.970;2022-08-19T08:06:08;53.90;;;40.63;;
2562;SDS011;1291;51.420;6.970;2022-08-19T08:08:52;52.08;;;42.25;;
2562;SDS011;1291;51.420;6.970;2022-08-19T08:11:36;51.10;;;41.40;;
2562;SDS011;1291;51.420;6.970;2022-08-19T08:14:03;47.17;;;39.60;;
2562;SDS011;1291;51.420;6.970;2022-08-19T08:16:29;47.58;;;37.90;;
2562;SDS011;1291;51.420;6.970;2022-08-19T08:19:00;47.25;;;37.63;;
2562;SDS011;1291;51.420;6.970;2022-08-19T08:21:26;48.25;;;36.67;;
2562;SDS011;1291;51.420;6.970;2022-08-19T08:23:51;46.47;;;38.47;;
2562;SDS011;1291;51.420;6.970;2022-08-19T08:26:18;48.05;;;38.97;;
2562;SDS011;1291;51.420;6.970;2022-08-19T08:28:43;45.55;;;36.83;;
2562;SDS011;1291;51.420;6.970;2022-08-19T08:31:09;45.53;;;36.42;;
2562;SDS011;1291;51.420;6.970;2022-08-19T08:33:35;43.63;;;34.47;;
2562;SDS011;1291;51.420;6.970;2022-08-19T08:36:02;40.92;;;33.75;;
2562;SDS011;1291;51.420;6.970;2022-08-19T08:38:30;37.22;;;30.77;;
2562;SDS011;1291;51.420;6.970;2022-08-19T08:40:58;33.53;;;26.95;;
2562;SDS011;1291;51.420;6.970;2022-08-19T08:43:38;30.00;;;24.95;;
2562;SDS011;1291;51.420;6.970;2022-08-19T08:46:10;32.17;;;26.00;;
2562;SDS011;1291;51.420;6.970;2022-08-19T08:48:51;32.45;;;25.27;;
2562;SDS011;1291;51.420;6.970;2022-08-19T08:51:42;29.10;;;24.13;;
2562;SDS011;1291;51.420;6.970;2022-08-19T08:54:13;26.92;;;22.83;;
2562;SDS011;1291;51.420;6.970;2022-08-19T08:56:43;25.80;;;22.00;;
2562;SDS011;1291;51.420;6.970;2022-08-19T08:59:25;25.92;;;22.08;;
2562;SDS011;1291;51.420;6.970;2022-08-19T09:02:01;22.63;;;18.83;;
2562;SDS011;1291;51.420;6.970;2022-08-19T09:04:27;22.05;;;19.17;;
2562;SDS011;1291;51.420;6.970;2022-08-19T09:09:48;20.73;;;17.10;;
2562;SDS011;1291;51.420;6.970;2022-08-19T09:12:35;20.73;;;17.05;;
2562;SDS011;1291;51.420;6.970;2022-08-19T09:15:11;20.70;;;17.25;;
2562;SDS011;1291;51.420;6.970;2022-08-19T09:17:38;19.73;;;17.38;;
2562;SDS011;1291;51.420;6.970;2022-08-19T09:22:39;18.33;;;16.35;;
2562;SDS011;1291;51.420;6.970;2022-08-19T09:25:09;22.80;;;18.20;;
2562;SDS011;1291;51.420;6.970;2022-08-19T09:27:37;16.70;;;13.98;;
2562;SDS011;1291;51.420;6.970;2022-08-19T09:30:05;16.40;;;14.48;;
2562;SDS011;1291;51.420;6.970;2022-08-19T09:32:32;16.27;;;14.10;;
2562;SDS011;1291;51.420;6.970;2022-08-19T09:34:59;17.63;;;14.50;;
2562;SDS011;1291;51.420;6.970;2022-08-19T09:37:25;20.35;;;16.50;;
2562;SDS011;1291;51.420;6.970;2022-08-19T09:39:51;16.27;;;14.45;;
2562;SDS011;1291;51.420;6.970;2022-08-19T09:42:18;15.77;;;13.63;;
2562;SDS011;1291;51.420;6.970;2022-08-19T09:44:45;17.15;;;14.95;;
2562;SDS011;1291;51.420;6.970;2022-08-19T09:47:11;20.85;;;15.48;;
2562;SDS011;1291;51.420;6.970;2022-08-19T09:49:38;17.30;;;14.45;;
2562;SDS011;1291;51.420;6.970;2022-08-19T09:52:05;18.05;;;15.43;;
2562;SDS011;1291;51.420;6.970;2022-08-19T09:54:35;19.25;;;16.25;;
2562;SDS011;1291;51.420;6.970;2022-08-19T09:57:00;18.20;;;15.82;;
2562;SDS011;1291;51.420;6.970;2022-08-19T09:59:26;19.50;;;15.57;;
2562;SDS011;1291;51.420;6.970;2022-08-19T10:01:52;19.63;;;17.50;;
2562;SDS011;1291;51.420;6.970;2022-08-19T10:04:20;21.42;;;16.83;;
2562;SDS011;1291;51.420;6.970;2022-08-19T10:06:46;21.95;;;18.30;;
2562;SDS011;1291;51.420;6.970;2022-08-19T10:09:13;19.10;;;16.25;;
2562;SDS011;1291;51.420;6.970;2022-08-19T10:11:41;22.90;;;19.13;;
2562;SDS011;1291;51.420;6.970;2022-08-19T10:14:08;22.33;;;18.33;;
2562;SDS011;1291;51.420;6.970;2022-08-19T10:16:35;19.15;;;16.50;;
2562;SDS011;1291;51.420;6.970;2022-08-19T10:19:02;24.65;;;20.90;;
2562;SDS011;1291;51.420;6.970;2022-08-19T10:21:29;23.17;;;20.02;;
2562;SDS011;1291;51.420;6.970;2022-08-19T10:23:57;24.70;;;20.40;;
2562;SDS011;1291;51.420;6.970;2022-08-19T10:26:25;25.42;;;21.02;;
2562;SDS011;1291;51.420;6.970;2022-08-19T10:28:53;25.63;;;21.42;;
2562;SDS011;1291;51.420;6.970;2022-08-19T10:31:28;23.52;;;20.63;;
2562;SDS011;1291;51.420;6.970;2022-08-19T10:33:55;30.02;;;21.75;;
2562;SDS011;1291;51.420;6.970;2022-08-19T10:36:25;24.63;;;20.75;;
2562;SDS011;1291;51.420;6.970;2022-08-19T10:38:54;21.90;;;19.40;;
2562;SDS011;1291;51.420;6.970;2022-08-19T10:41:28;24.23;;;21.35;;
2562;SDS011;1291;51.420;6.970;2022-08-19T10:44:01;26.90;;;23.08;;
2562;SDS011;1291;51.420;6.970;2022-08-19T10:46:30;29.80;;;25.35;;
2562;SDS011;1291;51.420;6.970;2022-08-19T10:48:57;22.63;;;20.17;;
2562;SDS011;1291;51.420;6.970;2022-08-19T10:51:25;24.40;;;21.52;;
2562;SDS011;1291;51.420;6.970;2022-08-19T10:54:10;27.55;;;20.75;;
2562;SDS011;1291;51.420;6.970;2022-08-19T10:56:35;24.02;;;21.50;;
2562;SDS011;1291;51.420;6.970;2022-08-19T10:59:17;27.38;;;20.60;;
2562;SDS011;1291;51.420;6.970;2022-08-19T11:01:48;23.92;;;20.23;;
2562;SDS011;1291;51.420;6.970;2022-08-19T11:04:16;25.98;;;19.65;;
2562;SDS011;1291;51.420;6.970;2022-08-19T11:06:46;23.85;;;19.15;;
2562;SDS011;1291;51.420;6.970;2022-08-19T11:09:14;23.45;;;20.10;;
2562;SDS011;1291;51.420;6.970;2022-08-19T11:11:41;22.13;;;18.90;;
2562;SDS011;1291;51.420;6.970;2022-08-19T11:14:11;22.35;;;18.83;;
2562;SDS011;1291;51.420;6.970;2022-08-19T11:16:39;23.25;;;18.00;;
2562;SDS011;1291;51.420;6.970;2022-08-19T11:19:07;20.50;;;17.83;;
2562;SDS011;1291;51.420;6.970;2022-08-19T11:21:35;18.55;;;14.90;;
2562;SDS011;1291;51.420;6.970;2022-08-19T11:24:05;17.83;;;15.52;;
2562;SDS011;1291;51.420;6.970;2022-08-19T11:26:32;18.63;;;15.88;;
2562;SDS011;1291;51.420;6.970;2022-08-19T11:29:00;19.83;;;15.05;;
2562;SDS011;1291;51.420;6.970;2022-08-19T11:31:30;17.17;;;15.13;;
2562;SDS011;1291;51.420;6.970;2022-08-19T11:34:01;20.05;;;15.40;;
2562;SDS011;1291;51.420;6.970;2022-08-19T11:36:29;17.90;;;14.75;;
2562;SDS011;1291;51.420;6.970;2022-08-19T11:38:56;16.27;;;14.30;;
2562;SDS011;1291;51.420;6.970;2022-08-19T11:41:22;14.48;;;12.80;;
2562;SDS011;1291;51.420;6.970;2022-08-19T11:43:49;14.98;;;12.75;;
2562;SDS011;1291;51.420;6.970;2022-08-19T11:46:16;12.25;;;10.48;;
2562;SDS011;1291;51.420;6.970;2022-08-19T11:48:42;11.43;;;9.13;;
2562;SDS011;1291;51.420;6.970;2022-08-19T11:51:10;15.02;;;13.10;;
2562;SDS011;1291;51.420;6.970;2022-08-19T11:53:46;13.05;;;11.65;;
2562;SDS011;1291;51.420;6.970;2022-08-19T11:56:12;13.43;;;11.18;;
2562;SDS011;1291;51.420;6.970;2022-08-19T11:58:38;16.65;;;12.63;;
2562;SDS011;1291;51.420;6.970;2022-08-19T12:01:05;14.57;;;12.30;;
2562;SDS011;1291;51.420;6.970;2022-08-19T12:03:32;11.40;;;10.07;;
2562;SDS011;1291;51.420;6.970;2022-08-19T12:06:02;11.10;;;9.65;;
2562;SDS011;1291;51.420;6.970;2022-08-19T12:08:28;15.55;;;11.05;;
2562;SDS011;1291;51.420;6.970;2022-08-19T12:10:54;10.98;;;9.85;;
2562;SDS011;1291;51.420;6.970;2022-08-19T12:13:19;12.80;;;9.27;;
2562;SDS011;1291;51.420;6.970;2022-08-19T12:15:45;13.02;;;10.20;;
2562;SDS011;1291;51.420;6.970;2022-08-19T12:18:12;11.48;;;10.02;;
2562;SDS011;1291;51.420;6.970;2022-08-19T12:20:39;14.70;;;8.82;;
2562;SDS011;1291;51.420;6.970;2022-08-19T12:23:06;11.45;;;10.25;;
2562;SDS011;1291;51.420;6.970;2022-08-19T12:25:33;18.25;;;10.57;;
2562;SDS011;1291;51.420;6.970;2022-08-19T12:27:59;12.23;;;10.93;;
2562;SDS011;1291;51.420;6.970;2022-08-19T12:30:25;13.50;;;8.88;;
2562;SDS011;1291;51.420;6.970;2022-08-19T12:32:50;7.88;;;7.18;;
2562;SDS011;1291;51.420;6.970;2022-08-19T12:35:19;8.93;;;7.70;;
2562;SDS011;1291;51.420;6.970;2022-08-19T12:37:45;8.95;;;8.07;;
2562;SDS011;1291;51.420;6.970;2022-08-19T12:40:15;8.13;;;7.32;;
2562;SDS011;1291;51.420;6.970;2022-08-19T12:42:42;8.77;;;7.85;;
2562;SDS011;1291;51.420;6.970;2022-08-19T12:45:09;7.53;;;6.22;;
2562;SDS011;1291;51.420;6.970;2022-08-19T12:47:35;9.52;;;7.15;;
2562;SDS011;1291;51.420;6.970;2022-08-19T12:50:01;7.72;;;7.00;;
2562;SDS011;1291;51.420;6.970;2022-08-19T12:52:29;7.75;;;6.90;;
2562;SDS011;1291;51.420;6.970;2022-08-19T12:54:57;8.13;;;7.05;;
2562;SDS011;1291;51.420;6.970;2022-08-19T12:57:23;8.15;;;7.30;;
2562;SDS011;1291;51.420;6.970;2022-08-19T12:59:53;7.30;;;6.20;;
2562;SDS011;1291;51.420;6.970;2022-08-19T13:02:22;8.15;;;6.57;;
2562;SDS011;1291;51.420;6.970;2022-08-19T13:04:47;8.30;;;7.15;;
2562;SDS011;1291;51.420;6.970;2022-08-19T13:07:13;6.65;;;5.70;;
2562;SDS011;1291;51.420;6.970;2022-08-19T13:09:38;9.13;;;6.00;;
2562;SDS011;1291;51.420;6.970;2022-08-19T13:12:06;7.13;;;6.00;;
2562;SDS011;1291;51.420;6.970;2022-08-19T13:14:37;7.38;;;6.68;;
2562;SDS011;1291;51.420;6.970;2022-08-19T13:17:03;8.55;;;6.88;;
2562;SDS011;1291;51.420;6.970;2022-08-19T13:19:28;6.20;;;5.60;;
2562;SDS011;1291;51.420;6.970;2022-08-19T13:21:55;8.50;;;6.13;;
2562;SDS011;1291;51.420;6.970;2022-08-19T13:24:21;6.13;;;5.53;;
2562;SDS011;1291;51.420;6.970;2022-08-19T13:26:47;8.73;;;5.45;;
2562;SDS011;1291;51.420;6.970;2022-08-19T13:29:13;10.75;;;5.80;;
2562;SDS011;1291;51.420;6.970;2022-08-19T13:31:57;7.90;;;5.60;;
2562;SDS011;1291;51.420;6.970;2022-08-19T13:34:41;7.80;;;6.15;;
2562;SDS011;1291;51.420;6.970;2022-08-19T13:37:07;5.90;;;5.40;;
2562;SDS011;1291;51.420;6.970;2022-08-19T13:39:33;7.95;;;6.13;;
2562;SDS011;1291;51.420;6.970;2022-08-19T13:41:59;8.43;;;6.32;;
2562;SDS011;1291;51.420;6.970;2022-08-19T13:44:26;10.85;;;5.15;;
2562;SDS011;1291;51.420;6.970;2022-08-19T13:46:55;6.30;;;5.70;;
2562;SDS011;1291;51.420;6.970;2022-08-19T13:49:34;6.10;;;5.47;;
2562;SDS011;1291;51.420;6.970;2022-08-19T13:52:01;5.82;;;5.20;;
2562;SDS011;1291;51.420;6.970;2022-08-19T13:54:27;6.90;;;5.28;;
2562;SDS011;1291;51.420;6.970;2022-08-19T13:56:53;6.43;;;5.00;;
2562;SDS011;1291;51.420;6.970;2022-08-19T13:59:18;5.65;;;4.95;;
2562;SDS011;1291;51.420;6.970;2022-08-19T14:01:44;6.88;;;5.03;;
2562;SDS011;1291;51.420;6.970;2022-08-19T14:04:09;9.50;;;5.03;;
2562;SDS011;1291;51.420;6.970;2022-08-19T14:06:35;6.57;;;4.65;;
2562;SDS011;1291;51.420;6.970;2022-08-19T14:09:01;6.25;;;4.60;;
2562;SDS011;1291;51.420;6.970;2022-08-19T14:11:27;8.85;;;5.45;;
2562;SDS011;1291;51.420;6.970;2022-08-19T14:13:53;9.15;;;5.20;;
2562;SDS011;1291;51.420;6.970;2022-08-19T14:16:19;8.75;;;4.80;;
2562;SDS011;1291;51.420;6.970;2022-08-19T14:18:46;10.07;;;5.07;;
2562;SDS011;1291;51.420;6.970;2022-08-19T14:21:16;5.25;;;4.00;;
2562;SDS011;1291;51.420;6.970;2022-08-19T14:23:45;7.65;;;5.20;;
2562;SDS011;1291;51.420;6.970;2022-08-19T14:26:16;6.60;;;5.40;;
2562;SDS011;1291;51.420;6.970;2022-08-19T14:28:43;7.60;;;4.95;;
2562;SDS011;1291;51.420;6.970;2022-08-19T14:31:12;6.38;;;5.47;;
2562;SDS011;1291;51.420;6.970;2022-08-19T14:33:44;6.95;;;5.38;;
2562;SDS011;1291;51.420;6.970;2022-08-19T14:36:11;7.45;;;5.63;;
2562;SDS011;1291;51.420;6.970;2022-08-19T14:38:36;7.90;;;6.13;;
2562;SDS011;1291;51.420;6.970;2022-08-19T14:41:16;8.68;;;6.03;;
2562;SDS011;1291;51.420;6.970;2022-08-19T14:43:44;6.97;;;5.80;;
2562;SDS011;1291;51.420;6.970;2022-08-19T14:46:13;6.47;;;5.72;;
2562;SDS011;1291;51.420;6.970;2022-08-19T14:48:42;7.50;;;6.10;;
2562;SDS011;1291;51.420;6.970;2022-08-19T14:51:08;6.68;;;5.80;;
2562;SDS011;1291;51.420;6.970;2022-08-19T14:53:34;6.95;;;6.22;;
2562;SDS011;1291;51.420;6.970;2022-08-19T14:56:00;7.65;;;5.95;;
2562;SDS011;1291;51.420;6.970;2022-08-19T14:58:26;8.80;;;6.75;;
2562;SDS011;1291;51.420;6.970;2022-08-19T15:00:53;7.80;;;6.82;;
2562;SDS011;1291;51.420;6.970;2022-08-19T15:03:18;6.72;;;6.00;;
2562;SDS011;1291;51.420;6.970;2022-08-19T15:05:44;10.00;;;6.03;;
2562;SDS011;1291;51.420;6.970;2022-08-19T15:08:09;9.02;;;6.00;;
2562;SDS011;1291;51.420;6.970;2022-08-19T15:10:35;6.68;;;5.97;;
2562;SDS011;1291;51.420;6.970;2022-08-19T15:13:02;8.30;;;6.53;;
2562;SDS011;1291;51.420;6.970;2022-08-19T15:15:28;9.70;;;6.75;;
2562;SDS011;1291;51.420;6.970;2022-08-19T15:17:53;6.47;;;5.88;;
2562;SDS011;1291;51.420;6.970;2022-08-19T15:20:19;7.05;;;5.88;;